createdAt,value
2023-05-10T00:04:12.355Z,2.51
2023-05-10T00:14:12.697Z,5.30
2023-05-10T00:24:13.390Z,4.27
2023-05-10T00:34:13.273Z,7.33
2023-05-10T00:44:13.497Z,6.95
2023-05-10T00:54:13.389Z,5.09
2023-05-10T01:04:13.614Z,5.46
2023-05-10T01:14:15.204Z,4.99
2023-05-10T01:24:18.462Z,4.89
2023-05-10T01:34:18.399Z,4.15
2023-05-10T01:44:19.611Z,3.69
2023-05-10T01:54:19.483Z,3.50
2023-05-10T02:04:19.804Z,3.59
2023-05-10T02:14:20.731Z,4.88
2023-05-10T02:24:20.407Z,4.33
2023-05-10T02:34:20.491Z,4.42
2023-05-10T02:44:20.964Z,4.32
2023-05-10T02:54:21.625Z,3.50
2023-05-10T03:04:21.640Z,4.60
2023-05-10T03:14:21.634Z,5.52
2023-05-10T03:24:22.431Z,4.51
2023-05-10T03:45:25.749Z,5.51
2023-05-10T03:55:25.594Z,2.39
2023-05-10T04:05:27.169Z,6.15
2023-05-10T04:15:27.561Z,3.21
2023-05-10T04:25:27.621Z,3.86
2023-05-10T04:35:27.662Z,5.88
2023-05-10T04:45:27.661Z,5.61
2023-05-10T04:55:27.783Z,2.94
2023-05-10T05:05:27.678Z,5.25
2023-05-10T05:15:27.767Z,5.43
2023-05-10T05:25:27.740Z,8.38
2023-05-10T05:35:27.772Z,8.34
2023-05-10T05:45:27.683Z,3.34
2023-05-10T05:55:27.832Z,6.12
2023-05-10T06:05:27.780Z,6.40
2023-05-10T06:15:27.756Z,7.24
2023-05-10T06:25:27.762Z,4.26
2023-05-10T06:35:27.800Z,5.67
2023-05-10T06:45:27.906Z,5.96
2023-05-10T06:55:27.841Z,5.58
2023-05-10T07:05:28.275Z,5.48
2023-05-10T07:15:29.082Z,9.65
2023-05-10T07:25:29.157Z,5.04
2023-05-10T07:35:28.946Z,6.78
2023-05-10T07:45:28.890Z,6.28
2023-05-10T07:55:29.035Z,7.94
2023-05-10T08:05:28.867Z,5.38
2023-05-10T08:15:28.894Z,5.87
2023-05-10T08:25:31.016Z,6.37
2023-05-10T08:35:31.395Z,5.91
2023-05-10T08:45:32.120Z,4.65
2023-05-10T08:55:33.376Z,7.88
2023-05-10T09:05:33.965Z,7.87
2023-05-10T09:15:34.049Z,9.00
2023-05-10T09:25:34.297Z,8.46
2023-05-10T09:35:34.621Z,10.15
2023-05-10T09:45:37.654Z,7.97
2023-05-10T09:55:37.120Z,8.28
2023-05-10T10:05:37.184Z,9.13
2023-05-10T10:15:37.253Z,7.42
2023-05-10T10:25:37.141Z,6.98
2023-05-10T10:35:37.083Z,8.77
2023-05-10T10:45:37.158Z,4.97
2023-05-10T10:55:37.119Z,6.86
2023-05-10T11:05:37.133Z,4.62
2023-05-10T11:15:37.173Z,3.43
2023-05-10T11:25:37.151Z,2.74
2023-05-10T11:35:37.213Z,4.23
2023-05-10T11:45:37.592Z,5.91
2023-05-10T11:55:37.220Z,6.79
2023-05-10T12:05:37.190Z,2.47
2023-05-10T12:15:37.274Z,3.75
2023-05-10T12:25:37.341Z,3.94
2023-05-10T12:35:37.347Z,6.40
2023-05-10T12:45:37.302Z,6.41
2023-05-10T12:55:37.405Z,3.84
2023-05-10T13:05:37.297Z,6.69
2023-05-10T13:15:37.492Z,7.38
2023-05-10T13:25:37.342Z,6.39
2023-05-10T13:35:37.357Z,10.81
2023-05-10T13:45:37.369Z,5.80
2023-05-10T13:55:37.435Z,7.59
2023-05-10T14:05:37.512Z,6.02
2023-05-10T14:15:37.647Z,5.14
2023-05-10T14:25:38.497Z,6.53
2023-05-10T14:35:38.493Z,6.72
2023-05-10T14:45:38.495Z,4.35
2023-05-10T14:55:38.862Z,4.45
2023-05-10T15:05:39.554Z,3.16
2023-05-10T15:15:39.528Z,2.87
2023-05-10T15:25:40.082Z,2.47
2023-05-10T15:35:40.550Z,2.38
2023-05-10T15:45:41.081Z,2.98
2023-05-10T15:55:41.668Z,4.46
2023-05-10T16:05:41.850Z,2.48
2023-05-10T16:15:42.538Z,4.26
2023-05-10T16:25:42.669Z,2.38
2023-05-10T16:35:42.653Z,3.37
2023-05-10T16:45:42.811Z,1.69
2023-05-10T16:55:42.901Z,4.46
2023-05-10T17:05:42.771Z,1.98
2023-05-10T17:15:42.783Z,2.96
2023-05-10T17:25:42.755Z,1.28
2023-05-10T17:35:42.816Z,1.87
2023-05-10T17:45:43.775Z,0.59
2023-05-10T17:55:43.842Z,1.18
2023-05-10T18:05:43.844Z,2.34
2023-05-10T18:15:43.751Z,2.33
2023-05-10T18:25:43.844Z,3.00
2023-05-10T18:35:44.290Z,2.51
2023-05-10T18:45:44.815Z,2.12
2023-05-10T18:55:46.565Z,1.15
2023-05-10T19:05:48.319Z,2.78
2023-05-10T19:15:48.918Z,4.02
2023-05-10T19:25:48.909Z,2.29
2023-05-10T19:35:48.914Z,2.29
2023-05-10T19:45:48.902Z,3.43
2023-05-10T19:55:48.982Z,3.99
2023-05-10T20:05:48.959Z,2.28
2023-05-10T20:15:49.000Z,3.61
2023-05-10T20:25:49.242Z,4.46
2023-05-10T20:35:49.229Z,4.45
2023-05-10T20:45:49.086Z,3.03
2023-05-10T20:55:49.086Z,4.25
2023-05-10T21:05:48.959Z,5.38
2023-05-10T21:15:49.007Z,3.68
2023-05-10T21:25:48.992Z,3.39
2023-05-10T21:35:49.107Z,7.25
2023-05-10T21:45:49.084Z,6.11
2023-05-10T21:55:49.114Z,5.17
2023-05-10T22:05:49.075Z,4.41
2023-05-10T22:15:49.148Z,6.00
2023-05-10T22:25:49.120Z,5.34
2023-05-10T22:35:49.085Z,4.96
2023-05-10T22:45:49.454Z,5.33
2023-05-10T22:55:49.148Z,8.79
2023-05-10T23:05:49.503Z,5.42
2023-05-10T23:15:49.266Z,5.50
2023-05-10T23:25:49.139Z,7.09
2023-05-10T23:35:49.227Z,7.18
2023-05-10T23:45:49.227Z,6.52
2023-05-10T23:55:49.267Z,9.41
